Terminal Aerodrome Forecast
Issued by NWS

Home | Current Version | Previous Version | Text Only | Print | Product List | Glossary On
Versions: 1 2 3 4 5 6 7 8 9 10 11 12 13 14 15 16
000
FTUS43 KDVN 211700 RRA
TAFBRL
TAF
KBRL 211745Z 2118/2218 16012KT P6SM SKC
     FM212200 15012KT P6SM SCT025 OVC040
     FM220100 16012KT 3SM -FZRA BR BKN009 OVC010
     FM220600 20012KT 2SM -DZ BR OVC009=

USA.gov is the U.S. government's official web portal to all federal, state and local government web resources and services.